Time;durP1;ratioP1;P1;durP2;ratioP2;P2;SDS_P1;SDS_P2;PMS_P1;PMS_P2;Temp;Humidity;BMP_temperature;BMP_pressure;BME280_temperature;BME280_humidity;BME280_pressure;Samples;Min_cycle;Max_cycle;Signal;HPM_P1;HPM_P2
2024/04/20 00:01:25;;;;;;;2.50;1.00;;;15.50;75.30;;;;;;5424665;26;20444;-60
2024/04/20 00:03:51;;;;;;;3.15;1.10;;;15.50;75.30;;;;;;5418681;26;20019;-60
2024/04/20 00:06:17;;;;;;;4.53;1.05;;;15.50;75.30;;;;;;5423582;26;20075;-60
2024/04/20 00:08:44;;;;;;;3.15;0.98;;;15.40;75.30;;;;;;5423607;26;19996;-60
2024/04/20 00:11:09;;;;;;;2.97;0.95;;;15.50;75.40;;;;;;5426339;26;20003;-60
2024/04/20 00:13:39;;;;;;;3.50;1.15;;;15.40;75.30;;;;;;5420944;26;20007;-60
2024/04/20 00:16:05;;;;;;;3.08;1.10;;;15.40;75.30;;;;;;5426515;26;19995;-60
2024/04/20 00:18:31;;;;;;;4.53;1.10;;;15.40;75.30;;;;;;5423256;26;19995;-60
2024/04/20 00:20:56;;;;;;;2.72;1.00;;;15.40;75.40;;;;;;5430061;26;20042;-60
2024/04/20 00:23:26;;;;;;;3.53;1.00;;;15.40;75.30;;;;;;5423197;26;20024;-60
2024/04/20 00:25:52;;;;;;;3.83;1.00;;;15.40;75.40;;;;;;5424305;26;20050;-60
2024/04/20 00:28:18;;;;;;;2.95;0.93;;;15.40;75.90;;;;;;5427517;26;19999;-60
2024/04/20 00:30:44;;;;;;;3.00;1.10;;;15.40;75.40;;;;;;5427825;26;20309;-60
2024/04/20 00:33:10;;;;;;;3.95;1.10;;;15.40;75.50;;;;;;5425009;26;20003;-60
2024/04/20 00:35:39;;;;;;;3.85;1.00;;;15.40;75.50;;;;;;5426217;26;20000;-60
2024/04/20 00:38:05;;;;;;;2.17;1.00;;;15.40;75.50;;;;;;5429911;26;20006;-60
2024/04/20 00:40:31;;;;;;;3.05;1.10;;;15.40;75.50;;;;;;5422336;26;20010;-60
2024/04/20 00:42:56;;;;;;;4.53;1.15;;;15.40;75.50;;;;;;5428779;26;20011;-60
2024/04/20 00:45:23;;;;;;;4.45;1.20;;;15.30;75.50;;;;;;5431515;26;20770;-60
2024/04/20 00:47:49;;;;;;;3.10;1.05;;;15.30;75.50;;;;;;5425796;26;20692;-60
2024/04/20 00:50:15;;;;;;;4.90;1.17;;;15.30;75.50;;;;;;5427203;26;20035;-60
2024/04/20 00:52:42;;;;;;;3.38;1.10;;;15.30;75.50;;;;;;5424615;26;20006;-60
2024/04/20 00:55:08;;;;;;;3.50;0.98;;;15.30;76.10;;;;;;5426565;26;19996;-60
2024/04/20 00:57:34;;;;;;;3.88;1.15;;;15.30;75.50;;;;;;5427091;26;20000;-59
2024/04/20 01:00:00;;;;;;;3.38;0.93;;;15.30;75.50;;;;;;5430580;26;20002;-60
2024/04/20 01:02:25;;;;;;;4.22;1.20;;;15.30;75.50;;;;;;5426529;26;20396;-61
2024/04/20 01:04:51;;;;;;;4.88;1.08;;;15.30;75.50;;;;;;5415775;26;20585;-60
2024/04/20 01:07:17;;;;;;;4.55;1.20;;;15.30;75.50;;;;;;5428787;26;20006;-60
2024/04/20 01:09:43;;;;;;;4.03;1.02;;;15.30;75.50;;;;;;5425141;26;19991;-60
2024/04/20 01:12:09;;;;;;;2.90;1.00;;;15.30;75.50;;;;;;5426701;26;20035;-60
2024/04/20 01:14:34;;;;;;;1.90;0.90;;;15.30;75.50;;;;;;5427997;26;20363;-60
2024/04/20 01:17:00;;;;;;;4.32;1.20;;;15.30;75.50;;;;;;5424288;26;20702;-60
2024/04/20 01:19:26;;;;;;;4.03;1.20;;;15.30;75.50;;;;;;5427741;26;19990;-60
2024/04/20 01:21:52;;;;;;;3.08;1.00;;;15.30;75.50;;;;;;5421036;26;19999;-60
2024/04/20 01:24:22;;;;;;;7.25;1.20;;;15.30;75.50;;;;;;5427321;26;20013;-61
2024/04/20 01:26:47;;;;;;;3.95;1.10;;;15.30;75.50;;;;;;5424996;26;20000;-60
2024/04/20 01:29:13;;;;;;;3.20;1.10;;;15.30;75.50;;;;;;5426252;26;20010;-60
2024/04/20 01:31:38;;;;;;;2.75;1.05;;;15.30;75.40;;;;;;5426006;26;19999;-60
2024/04/20 01:34:04;;;;;;;5.95;1.20;;;15.20;75.40;;;;;;5424031;26;20007;-59
2024/04/20 01:36:29;;;;;;;3.15;1.10;;;15.20;75.40;;;;;;5452192;26;20003;-60
2024/04/20 01:38:57;;;;;;;4.55;1.20;;;15.20;75.40;;;;;;5430004;26;20038;-60
2024/04/20 01:41:30;;;;;;;2.20;0.93;;;15.20;75.40;;;;;;5428094;26;20007;-60
2024/04/20 01:43:56;;;;;;;3.50;1.00;;;15.20;75.40;;;;;;5431026;26;20020;-60
2024/04/20 01:46:21;;;;;;;5.07;1.25;;;15.20;75.40;;;;;;5419996;26;20351;-60
2024/04/20 01:48:47;;;;;;;3.30;1.02;;;15.20;75.40;;;;;;5424292;26;20081;-60
2024/04/20 01:51:13;;;;;;;6.78;1.10;;;15.20;75.40;;;;;;5427553;26;20031;-60
2024/04/20 01:53:39;;;;;;;2.53;1.00;;;15.20;75.50;;;;;;5421467;26;20044;-60
2024/04/20 01:56:07;;;;;;;4.68;1.10;;;15.20;75.50;;;;;;5425431;26;20022;-59
2024/04/20 01:58:33;;;;;;;3.05;1.13;;;15.20;75.50;;;;;;5426830;26;20002;-60
2024/04/20 02:01:01;;;;;;;3.58;1.20;;;15.20;75.50;;;;;;5424179;26;20011;-60
2024/04/20 02:03:26;;;;;;;6.03;1.20;;;15.20;75.50;;;;;;5428839;26;19999;-60
2024/04/20 02:05:52;;;;;;;4.82;1.15;;;15.20;75.40;;;;;;5422842;26;20003;-60
2024/04/20 02:08:18;;;;;;;3.15;1.00;;;15.20;75.40;;;;;;5429182;26;20051;-60
2024/04/20 02:10:43;;;;;;;4.32;1.20;;;15.20;75.40;;;;;;5427258;26;20014;-60
2024/04/20 02:13:11;;;;;;;3.65;1.10;;;15.20;75.40;;;;;;5425572;26;20076;-60
2024/04/20 02:15:36;;;;;;;5.97;1.15;;;15.20;75.40;;;;;;5425593;26;20021;-60
2024/04/20 02:18:02;;;;;;;3.80;1.00;;;15.20;75.40;;;;;;5426513;26;20010;-60
2024/04/20 02:20:28;;;;;;;2.63;1.00;;;15.20;75.40;;;;;;5423290;26;20007;-60
2024/04/20 02:22:53;;;;;;;2.30;0.93;;;15.10;75.40;;;;;;5426184;26;20469;-60
2024/04/20 02:25:19;;;;;;;3.30;1.10;;;15.10;75.40;;;;;;5423138;26;19996;-60
2024/04/20 02:27:44;;;;;;;3.10;1.05;;;15.10;75.40;;;;;;5427689;26;20044;-60
2024/04/20 02:30:10;;;;;;;4.32;1.17;;;15.10;75.40;;;;;;5424506;26;20029;-60
2024/04/20 02:32:36;;;;;;;2.78;1.05;;;15.10;75.40;;;;;;5425035;26;20023;-60
2024/04/20 02:35:01;;;;;;;4.70;1.23;;;15.10;75.40;;;;;;5417467;26;20005;-60
2024/04/20 02:37:27;;;;;;;3.70;1.20;;;15.10;75.40;;;;;;5429140;26;20005;-60
2024/04/20 02:39:55;;;;;;;8.25;1.50;;;15.10;75.40;;;;;;5422737;26;20000;-60
2024/04/20 02:42:21;;;;;;;3.13;1.17;;;15.10;75.40;;;;;;5430450;26;20635;-60
2024/04/20 02:44:46;;;;;;;5.60;1.50;;;15.10;75.40;;;;;;5420905;26;19995;-60
2024/04/20 02:47:12;;;;;;;4.57;1.20;;;15.10;75.40;;;;;;5423225;26;20070;-60
2024/04/20 02:49:38;;;;;;;3.97;1.10;;;15.10;75.40;;;;;;5425391;26;20444;-60
2024/04/20 02:52:06;;;;;;;4.47;1.20;;;15.10;75.40;;;;;;5422299;26;20003;-60
2024/04/20 02:54:31;;;;;;;3.63;1.20;;;15.10;75.40;;;;;;5424467;26;19996;-60
2024/04/20 02:56:57;;;;;;;3.53;1.17;;;15.10;75.40;;;;;;5426728;26;20353;-60
2024/04/20 02:59:23;;;;;;;5.10;1.13;;;15.10;75.40;;;;;;5423641;26;20015;-60
2024/04/20 03:01:48;;;;;;;3.92;1.00;;;15.10;75.40;;;;;;5425913;26;19995;-60
2024/04/20 03:04:14;;;;;;;3.72;1.10;;;15.10;75.40;;;;;;5414779;26;20028;-60
2024/04/20 03:06:39;;;;;;;3.15;1.10;;;15.00;75.40;;;;;;5418841;26;20003;-60
2024/04/20 03:09:05;;;;;;;4.72;1.20;;;15.10;75.40;;;;;;5426365;26;20773;-60
2024/04/20 03:11:31;;;;;;;3.85;1.40;;;15.10;75.40;;;;;;5424792;26;20472;-60
2024/04/20 03:13:56;;;;;;;3.40;1.20;;;15.10;75.40;;;;;;5424408;26;19999;-60
2024/04/20 03:16:24;;;;;;;4.57;1.05;;;15.10;75.40;;;;;;5426865;26;20072;-60
2024/04/20 03:18:50;;;;;;;3.10;1.17;;;15.00;75.40;;;;;;5422762;26;20008;-60
2024/04/20 03:21:15;;;;;;;2.70;1.00;;;15.00;75.40;;;;;;5428280;26;20010;-60
2024/04/20 03:23:41;;;;;;;2.50;1.00;;;15.00;75.40;;;;;;5418971;26;19997;-60
2024/04/20 03:26:09;;;;;;;3.33;1.20;;;15.00;75.40;;;;;;5424439;26;19995;-60
2024/04/20 03:28:34;;;;;;;3.05;1.20;;;15.00;75.30;;;;;;5423363;26;20076;-60
2024/04/20 03:31:00;;;;;;;3.78;1.05;;;15.00;75.40;;;;;;5425410;26;20043;-60
2024/04/20 03:33:30;;;;;;;3.22;1.08;;;15.00;75.40;;;;;;5423448;26;19996;-60
2024/04/20 03:35:56;;;;;;;1.75;0.90;;;15.00;75.30;;;;;;5429340;26;19999;-60
2024/04/20 03:38:23;;;;;;;3.72;1.50;;;15.00;75.40;;;;;;5426985;26;20002;-60
2024/04/20 03:40:51;;;;;;;3.55;1.15;;;15.00;75.40;;;;;;5422238;26;20019;-60
2024/04/20 03:43:17;;;;;;;4.13;1.13;;;15.00;75.40;;;;;;5427017;26;20450;-60
2024/04/20 03:45:52;;;;;;;4.05;1.23;;;15.00;75.30;;;;;;5414431;26;20067;-60
2024/04/20 03:48:18;;;;;;;6.43;1.17;;;15.00;75.30;;;;;;5427014;26;19996;-60
2024/04/20 03:50:54;;;;;;;4.40;1.20;;;15.00;75.30;;;;;;5426032;26;19995;-60
2024/04/20 03:53:20;;;;;;;4.40;1.13;;;15.00;75.30;;;;;;5428371;26;20010;-60
2024/04/20 03:55:46;;;;;;;2.65;1.10;;;15.00;75.30;;;;;;5429797;26;19998;-60
2024/04/20 03:58:12;;;;;;;3.70;1.05;;;15.00;75.20;;;;;;5425338;26;20077;-60
2024/04/20 04:00:37;;;;;;;3.45;1.15;;;15.00;75.20;;;;;;5430022;26;20442;-60
2024/04/20 04:03:05;;;;;;;3.47;1.10;;;15.00;75.20;;;;;;5426339;26;20034;-60
2024/04/20 04:05:30;;;;;;;4.13;1.17;;;15.00;75.20;;;;;;5424467;26;20075;-60
2024/04/20 04:07:56;;;;;;;4.43;1.30;;;15.00;75.20;;;;;;5426145;26;20007;-59
2024/04/20 04:10:22;;;;;;;4.30;1.20;;;14.90;75.20;;;;;;5429500;26;20084;-60
2024/04/20 04:12:47;;;;;;;3.97;1.15;;;14.90;75.10;;;;;;5425019;26;20453;-59
2024/04/20 04:15:13;;;;;;;7.10;1.48;;;14.90;75.20;;;;;;5429353;26;20010;-60
2024/04/20 04:17:38;;;;;;;5.40;1.38;;;14.90;75.30;;;;;;5429112;26;20338;-59
2024/04/20 04:20:05;;;;;;;2.72;1.10;;;15.00;75.40;;;;;;5429790;26;20003;-60
2024/04/20 04:22:31;;;;;;;3.25;1.30;;;15.00;75.40;;;;;;5422220;26;20007;-59
2024/04/20 04:24:59;;;;;;;2.83;1.00;;;15.00;75.30;;;;;;5427437;26;20073;-60
2024/04/20 04:27:24;;;;;;;3.40;1.20;;;15.10;75.30;;;;;;5426584;26;19995;-60
2024/04/20 04:29:50;;;;;;;4.32;1.17;;;15.10;75.20;;;;;;5425826;26;20090;-60
2024/04/20 04:32:15;;;;;;;4.00;1.20;;;15.20;75.10;;;;;;5428898;26;20653;-60
2024/04/20 04:34:41;;;;;;;2.38;1.00;;;15.20;75.00;;;;;;5419649;26;20467;-59
2024/04/20 04:37:07;;;;;;;3.15;1.15;;;15.30;74.90;;;;;;5437878;26;20008;-60
2024/04/20 04:39:35;;;;;;;4.22;1.00;;;15.30;75.30;;;;;;5425013;26;20003;-60
2024/04/20 04:42:01;;;;;;;2.85;1.02;;;15.30;74.70;;;;;;5431622;26;20006;-60
2024/04/20 04:44:26;;;;;;;3.63;1.30;;;15.30;74.70;;;;;;5431338;26;20002;-60
2024/04/20 04:46:52;;;;;;;3.40;1.20;;;15.30;74.70;;;;;;5423371;26;19999;-60
2024/04/20 04:49:20;;;;;;;3.17;1.13;;;15.40;74.80;;;;;;5425241;26;20450;-59
2024/04/20 04:51:46;;;;;;;4.95;1.10;;;15.40;74.80;;;;;;5427256;26;20011;-60
2024/04/20 04:54:11;;;;;;;3.08;1.10;;;15.30;74.70;;;;;;5422026;26;20007;-59
2024/04/20 04:56:37;;;;;;;5.05;1.20;;;15.30;74.60;;;;;;5429620;26;20072;-59
2024/04/20 04:59:06;;;;;;;2.38;1.00;;;15.30;74.60;;;;;;5423927;26;19999;-60
2024/04/20 05:01:32;;;;;;;3.45;1.10;;;15.30;74.60;;;;;;5428867;26;20042;-60
2024/04/20 05:03:58;;;;;;;2.63;1.00;;;15.30;74.60;;;;;;5423140;26;20010;-60
2024/04/20 05:06:26;;;;;;;4.20;1.20;;;15.30;74.60;;;;;;5426925;26;20434;-60
2024/04/20 05:08:54;;;;;;;4.18;1.10;;;15.30;74.70;;;;;;5426050;26;20358;-60
2024/04/20 05:11:20;;;;;;;3.17;1.17;;;15.30;74.70;;;;;;5427653;26;19999;-60
2024/04/20 05:13:45;;;;;;;3.55;1.02;;;15.30;74.70;;;;;;5424102;26;20036;-60
2024/04/20 05:16:11;;;;;;;2.15;1.08;;;15.30;74.80;;;;;;5429489;26;20014;-60
2024/04/20 05:18:37;;;;;;;3.22;1.17;;;15.30;74.80;;;;;;5421339;26;20011;-60
2024/04/20 05:21:02;;;;;;;4.07;1.20;;;15.30;74.90;;;;;;5429724;26;20023;-59
2024/04/20 05:23:28;;;;;;;4.72;1.00;;;15.30;74.80;;;;;;5422539;26;20014;-59
2024/04/20 05:25:53;;;;;;;2.70;1.10;;;15.30;74.80;;;;;;5426876;26;20000;-60
2024/04/20 05:28:22;;;;;;;3.22;1.02;;;15.40;74.70;;;;;;5426760;26;19995;-59
2024/04/20 05:30:48;;;;;;;4.45;1.13;;;15.50;74.70;;;;;;5424899;26;20013;-60
2024/04/20 05:33:14;;;;;;;4.13;1.10;;;15.50;74.60;;;;;;5423385;26;20351;-60
2024/04/20 05:35:39;;;;;;;3.20;1.05;;;15.50;74.50;;;;;;5426066;26;20011;-59
2024/04/20 05:38:05;;;;;;;4.82;1.13;;;15.50;74.50;;;;;;5441869;26;19995;-60
2024/04/20 05:40:30;;;;;;;3.13;1.00;;;15.60;74.50;;;;;;5429576;26;20010;-61
2024/04/20 05:42:56;;;;;;;2.65;1.00;;;15.60;74.40;;;;;;5435979;26;20043;-61
2024/04/20 05:45:25;;;;;;;2.92;0.90;;;15.60;74.40;;;;;;5436478;26;20065;-61
2024/04/20 05:47:51;;;;;;;4.22;1.20;;;15.70;74.40;;;;;;5430760;26;19999;-61
2024/04/20 05:50:17;;;;;;;4.13;1.00;;;15.70;74.40;;;;;;5431384;26;20007;-61
2024/04/20 05:52:42;;;;;;;2.33;1.00;;;15.70;74.40;;;;;;5436660;26;20007;-61
2024/04/20 05:55:08;;;;;;;2.60;0.90;;;15.80;74.40;;;;;;5428775;26;20517;-61
2024/04/20 05:57:34;;;;;;;3.90;1.00;;;15.80;74.20;;;;;;5427523;26;19999;-61
2024/04/20 05:59:59;;;;;;;2.97;1.10;;;15.90;74.20;;;;;;5435241;26;19998;-61
2024/04/20 06:02:27;;;;;;;5.28;1.13;;;15.90;74.10;;;;;;5434047;26;20587;-61
2024/04/20 06:04:55;;;;;;;2.55;1.00;;;15.90;74.00;;;;;;5429460;26;19995;-61
2024/04/20 06:07:21;;;;;;;3.83;1.02;;;16.00;74.00;;;;;;5432710;26;20010;-61
2024/04/20 06:09:47;;;;;;;4.55;1.10;;;16.00;74.00;;;;;;5429451;26;20062;-61
2024/04/20 06:12:12;;;;;;;4.30;1.08;;;16.00;74.00;;;;;;5427338;26;20009;-61
2024/04/20 06:14:38;;;;;;;2.70;1.10;;;16.00;74.00;;;;;;5426800;26;20513;-61
2024/04/20 06:17:04;;;;;;;4.72;1.08;;;16.00;74.00;;;;;;5432608;26;20566;-61
2024/04/20 06:19:29;;;;;;;2.63;1.00;;;16.10;73.90;;;;;;5425973;26;20004;-61
2024/04/20 06:21:55;;;;;;;2.80;1.00;;;16.10;73.90;;;;;;5430149;26;20014;-61
2024/04/20 06:24:20;;;;;;;2.92;0.98;;;16.10;73.80;;;;;;5431571;26;20007;-62
2024/04/20 06:26:46;;;;;;;3.72;1.17;;;16.10;73.70;;;;;;5424054;26;20004;-61
2024/04/20 06:29:12;;;;;;;5.32;1.17;;;16.10;73.70;;;;;;5430167;26;20018;-61
2024/04/20 06:31:37;;;;;;;4.10;1.10;;;16.10;73.70;;;;;;5427564;26;20003;-61
2024/04/20 06:34:04;;;;;;;2.55;1.00;;;16.20;73.80;;;;;;5427096;26;19995;-61
2024/04/20 06:36:29;;;;;;;3.53;1.00;;;16.20;73.80;;;;;;5426607;26;20011;-61
2024/04/20 06:38:55;;;;;;;4.47;1.08;;;16.20;73.70;;;;;;5432379;26;20424;-61
2024/04/20 06:41:21;;;;;;;2.53;0.80;;;16.20;73.70;;;;;;5432834;26;19999;-61
2024/04/20 06:43:46;;;;;;;2.22;0.90;;;16.20;73.70;;;;;;5427785;26;20006;-61
2024/04/20 06:46:12;;;;;;;2.45;1.02;;;16.20;73.70;;;;;;5433648;26;20026;-61
2024/04/20 06:48:38;;;;;;;3.88;1.00;;;16.20;73.70;;;;;;5424060;26;20545;-60
2024/04/20 06:51:04;;;;;;;3.90;1.10;;;16.20;73.60;;;;;;5427560;26;20058;-60
2024/04/20 06:53:29;;;;;;;2.53;1.00;;;16.30;73.70;;;;;;5419962;26;20345;-60
2024/04/20 06:55:58;;;;;;;2.35;1.05;;;16.30;73.60;;;;;;5420974;26;20011;-60
2024/04/20 06:58:26;;;;;;;3.30;0.95;;;16.30;73.60;;;;;;5423092;26;20011;-61
2024/04/20 07:00:52;;;;;;;3.15;0.90;;;16.30;74.10;;;;;;5427709;26;19999;-60
2024/04/20 07:03:19;;;;;;;2.20;0.90;;;16.30;73.50;;;;;;5421460;26;20350;-61
2024/04/20 07:05:55;;;;;;;3.08;1.08;;;16.40;73.50;;;;;;5425219;26;20010;-60
2024/04/20 07:08:24;;;;;;;3.13;0.80;;;16.40;73.50;;;;;;5423353;26;19996;-61
2024/04/20 07:11:04;;;;;;;3.50;1.10;;;16.30;73.40;;;;;;5426825;26;20013;-61
2024/04/20 07:13:38;;;;;;;3.75;1.00;;;16.40;73.50;;;;;;5423274;26;20011;-60
2024/04/20 07:16:05;;;;;;;3.40;0.85;;;16.40;73.50;;;;;;5427129;26;20076;-60
2024/04/20 07:18:30;;;;;;;3.42;1.10;;;16.40;73.50;;;;;;5423168;26;20079;-61
2024/04/20 07:21:05;;;;;;;2.22;0.90;;;16.40;73.50;;;;;;5427176;26;20007;-60
2024/04/20 07:23:31;;;;;;;2.38;0.90;;;16.40;73.50;;;;;;5425833;26;20012;-60
2024/04/20 07:25:58;;;;;;;2.63;0.98;;;16.40;73.40;;;;;;5425672;26;20457;-61
2024/04/20 07:28:24;;;;;;;3.10;0.90;;;16.40;73.40;;;;;;5430098;26;20017;-60
2024/04/20 07:30:52;;;;;;;2.97;0.82;;;16.40;73.90;;;;;;5428681;26;19995;-60
2024/04/20 07:33:18;;;;;;;2.08;0.90;;;16.40;73.40;;;;;;5419078;26;20014;-60
2024/04/20 07:35:44;;;;;;;2.53;0.90;;;16.40;73.40;;;;;;5429081;26;20003;-60
2024/04/20 07:38:10;;;;;;;1.60;0.80;;;16.40;73.50;;;;;;5427893;26;20058;-61
2024/04/20 07:40:36;;;;;;;2.10;0.90;;;16.40;73.40;;;;;;5428146;26;20000;-60
2024/04/20 07:43:02;;;;;;;3.83;1.20;;;16.50;73.50;;;;;;5430450;26;20072;-60
2024/04/20 07:45:29;;;;;;;3.75;1.10;;;16.50;73.50;;;;;;5426619;26;20006;-60
2024/04/20 07:47:54;;;;;;;4.10;1.10;;;16.50;73.50;;;;;;5423746;26;20530;-60
2024/04/20 07:50:20;;;;;;;3.03;0.88;;;16.50;73.50;;;;;;5431615;26;19999;-60
2024/04/20 07:52:48;;;;;;;2.83;0.93;;;16.50;73.50;;;;;;5422918;26;19996;-60
2024/04/20 07:55:14;;;;;;;2.83;0.90;;;16.50;73.50;;;;;;5430389;26;20428;-60
2024/04/20 07:57:40;;;;;;;2.97;0.90;;;16.50;73.50;;;;;;5428819;26;20364;-60
2024/04/20 08:00:06;;;;;;;5.05;1.05;;;16.50;73.50;;;;;;5427208;26;19999;-60
2024/04/20 08:02:32;;;;;;;2.38;0.90;;;16.50;73.50;;;;;;5428278;26;20009;-60
2024/04/20 08:04:58;;;;;;;2.50;0.90;;;16.50;73.50;;;;;;5423311;26;20062;-60
2024/04/20 08:07:23;;;;;;;2.83;0.95;;;16.50;73.50;;;;;;5431865;26;19995;-60
2024/04/20 08:09:49;;;;;;;2.40;0.90;;;16.50;73.50;;;;;;5431593;26;20080;-61
2024/04/20 08:12:15;;;;;;;2.65;1.00;;;16.60;73.50;;;;;;5430185;26;20068;-61
2024/04/20 08:14:41;;;;;;;3.65;1.08;;;16.60;73.50;;;;;;5425767;26;20022;-60
2024/04/20 08:17:06;;;;;;;2.20;0.80;;;16.60;73.40;;;;;;5428250;26;20010;-61
2024/04/20 08:19:32;;;;;;;2.90;0.85;;;16.60;73.40;;;;;;5428435;26;20011;-60
2024/04/20 08:21:58;;;;;;;2.60;0.90;;;16.50;73.40;;;;;;5422342;26;19999;-60
2024/04/20 08:24:23;;;;;;;2.20;0.88;;;16.50;73.40;;;;;;5430317;26;20350;-60
2024/04/20 08:26:49;;;;;;;1.65;0.90;;;16.50;73.50;;;;;;5423369;26;20011;-60
2024/04/20 08:29:14;;;;;;;1.55;0.82;;;16.50;73.50;;;;;;5429740;26;20598;-60
2024/04/20 08:31:42;;;;;;;2.60;0.90;;;16.40;73.50;;;;;;5422478;26;20003;-60
2024/04/20 08:34:08;;;;;;;4.75;0.90;;;16.50;73.60;;;;;;5422753;26;20004;-60
2024/04/20 08:36:33;;;;;;;4.05;0.80;;;16.40;73.60;;;;;;5433469;26;20002;-60
2024/04/20 08:38:59;;;;;;;4.82;1.20;;;16.40;73.60;;;;;;5425512;26;20000;-60
2024/04/20 08:41:25;;;;;;;3.05;0.90;;;16.50;73.70;;;;;;5430629;26;20014;-60
2024/04/20 08:43:52;;;;;;;3.22;1.08;;;16.40;73.60;;;;;;5425219;26;20014;-60
2024/04/20 08:46:19;;;;;;;2.35;0.85;;;16.40;73.60;;;;;;5423432;26;20014;-60
2024/04/20 08:48:49;;;;;;;2.58;0.90;;;16.40;73.70;;;;;;5423227;26;20022;-60
2024/04/20 08:51:17;;;;;;;1.65;0.70;;;16.40;73.70;;;;;;5430004;26;20038;-60
2024/04/20 08:53:45;;;;;;;4.07;1.05;;;16.40;73.70;;;;;;5420984;26;19995;-60
2024/04/20 08:56:11;;;;;;;2.22;0.85;;;16.40;73.80;;;;;;5428177;26;19998;-60
2024/04/20 08:58:37;;;;;;;2.10;0.80;;;16.40;73.80;;;;;;5426091;26;20018;-60
2024/04/20 09:01:04;;;;;;;3.35;0.98;;;16.40;73.80;;;;;;5425529;26;19996;-60
2024/04/20 09:03:31;;;;;;;2.55;0.85;;;16.40;73.90;;;;;;5427470;26;20046;-60
2024/04/20 09:05:57;;;;;;;3.42;0.93;;;16.40;73.90;;;;;;5424843;26;20027;-60
2024/04/20 09:08:24;;;;;;;4.28;1.10;;;16.40;73.90;;;;;;5429584;26;20005;-60
2024/04/20 09:10:49;;;;;;;3.22;1.00;;;16.30;73.90;;;;;;5423837;26;19999;-60
2024/04/20 09:13:18;;;;;;;2.38;0.88;;;16.40;74.00;;;;;;5429849;26;20021;-60
2024/04/20 09:15:47;;;;;;;1.92;0.80;;;16.40;74.00;;;;;;5421494;26;20013;-60
2024/04/20 09:18:15;;;;;;;1.90;0.80;;;16.40;73.90;;;;;;5424267;26;20040;-61
2024/04/20 09:20:41;;;;;;;2.53;1.02;;;16.40;73.90;;;;;;5429586;26;20012;-60
2024/04/20 09:23:08;;;;;;;2.33;0.90;;;16.40;73.90;;;;;;5425959;26;20613;-60
2024/04/20 09:25:37;;;;;;;2.38;0.88;;;16.40;73.90;;;;;;5427288;26;20007;-60
2024/04/20 09:28:07;;;;;;;2.15;0.80;;;16.40;73.90;;;;;;5425134;26;20015;-60
2024/04/20 09:30:33;;;;;;;2.00;0.80;;;16.40;73.80;;;;;;5427665;26;19995;-61
2024/04/20 09:32:58;;;;;;;2.00;0.80;;;16.40;73.90;;;;;;5425896;26;20025;-61
2024/04/20 09:35:27;;;;;;;2.22;0.90;;;16.50;73.90;;;;;;5423432;26;20824;-60
2024/04/20 09:37:53;;;;;;;2.28;0.80;;;16.40;73.90;;;;;;5423325;26;20015;-61
2024/04/20 09:40:18;;;;;;;2.85;0.90;;;16.40;73.90;;;;;;5424443;26;20000;-61
2024/04/20 09:42:46;;;;;;;1.88;0.90;;;16.40;73.90;;;;;;5429875;26;19999;-60
2024/04/20 09:45:13;;;;;;;3.15;0.88;;;16.40;74.00;;;;;;5430349;26;20009;-60
2024/04/20 09:47:40;;;;;;;1.85;0.82;;;16.40;74.00;;;;;;5424308;26;20015;-60
2024/04/20 09:50:10;;;;;;;2.60;0.90;;;16.40;74.00;;;;;;5426701;26;20069;-60
2024/04/20 09:52:56;;;;;;;3.08;1.02;;;16.40;74.00;;;;;;5422040;26;20007;-60
2024/04/20 09:55:30;;;;;;;2.22;0.80;;;16.40;74.00;;;;;;5429590;26;20738;-60
2024/04/20 09:57:58;;;;;;;1.88;0.80;;;16.40;74.00;;;;;;5426218;26;19999;-60
2024/04/20 10:00:24;;;;;;;1.35;0.77;;;16.30;74.00;;;;;;5425814;26;20035;-60
2024/04/20 10:02:50;;;;;;;2.65;0.90;;;16.40;74.10;;;;;;5428086;26;20011;-60
2024/04/20 10:05:17;;;;;;;1.90;0.80;;;16.30;74.00;;;;;;5423581;26;20060;-60
2024/04/20 10:07:46;;;;;;;1.60;0.70;;;16.30;74.00;;;;;;5422729;26;20006;-60
2024/04/20 10:10:15;;;;;;;1.25;0.80;;;16.30;74.00;;;;;;5429892;26;20090;-61
2024/04/20 10:12:43;;;;;;;2.60;0.90;;;16.30;74.00;;;;;;5429828;26;20057;-60
2024/04/20 10:15:10;;;;;;;1.83;0.90;;;16.30;74.00;;;;;;5430521;26;20010;-60
2024/04/20 10:17:36;;;;;;;2.85;0.95;;;16.30;74.00;;;;;;5425924;26;20007;-60
2024/04/20 10:20:02;;;;;;;1.88;0.82;;;16.30;74.00;;;;;;5427861;26;20010;-60
2024/04/20 10:22:30;;;;;;;1.85;0.90;;;16.30;74.10;;;;;;5423735;26;19999;-60
2024/04/20 10:25:00;;;;;;;2.58;0.80;;;16.20;74.00;;;;;;5426013;26;20717;-60
2024/04/20 10:27:26;;;;;;;;;;;16.20;74.10;;;;;;5426761;26;19998;-60
2024/04/20 10:29:52;;;;;;;3.00;1.00;;;16.20;74.10;;;;;;5424673;26;19937;-60
2024/04/20 10:32:24;;;;;;;3.38;0.90;;;16.20;74.10;;;;;;5427404;26;20981;-60
2024/04/20 10:34:49;;;;;;;2.42;0.80;;;16.20;74.20;;;;;;5420716;26;20011;-60
2024/04/20 10:37:23;;;;;;;2.72;0.80;;;16.20;74.30;;;;;;5431463;26;19995;-60
2024/04/20 10:39:51;;;;;;;3.35;0.90;;;16.20;74.40;;;;;;5421540;26;20004;-60
2024/04/20 10:42:23;;;;;;;2.75;0.88;;;16.20;74.50;;;;;;5427777;26;20470;-60
2024/04/20 10:44:49;;;;;;;3.17;1.00;;;16.20;74.60;;;;;;5425731;26;20027;-60
2024/04/20 10:47:21;;;;;;;1.25;0.80;;;16.20;74.70;;;;;;5423749;26;19996;-60
2024/04/20 10:49:49;;;;;;;1.88;0.93;;;16.20;74.70;;;;;;5426416;26;20006;-60
2024/04/20 10:52:20;;;;;;;2.33;0.90;;;16.20;74.70;;;;;;5420581;26;20040;-60
2024/04/20 10:54:45;;;;;;;1.35;0.80;;;16.30;74.80;;;;;;5426982;26;19994;-60
2024/04/20 10:57:12;;;;;;;2.05;0.90;;;16.30;74.70;;;;;;5422428;26;20683;-60
2024/04/20 10:59:44;;;;;;;1.42;0.80;;;16.40;74.70;;;;;;5427881;26;20007;-60
2024/04/20 11:02:15;;;;;;;1.42;0.75;;;16.40;74.70;;;;;;5426493;26;20015;-60
2024/04/20 11:04:41;;;;;;;2.30;0.90;;;16.40;74.50;;;;;;5418407;26;20541;-60
2024/04/20 11:07:07;;;;;;;3.22;0.90;;;16.50;74.50;;;;;;5428124;26;20461;-60
2024/04/20 11:09:33;;;;;;;1.50;0.73;;;16.50;74.50;;;;;;5422608;26;20008;-60
2024/04/20 11:12:07;;;;;;;2.55;0.90;;;16.50;74.40;;;;;;5426922;26;20417;-60
2024/04/20 11:14:33;;;;;;;2.28;0.90;;;16.60;74.40;;;;;;5422637;26;19995;-60
2024/04/20 11:17:00;;;;;;;1.88;0.80;;;16.60;74.30;;;;;;5426145;26;20017;-60
2024/04/20 11:19:26;;;;;;;2.78;0.88;;;16.60;74.30;;;;;;5424760;26;20330;-60
2024/04/20 11:21:55;;;;;;;1.95;0.80;;;16.60;74.30;;;;;;5424385;26;20004;-60
2024/04/20 11:24:21;;;;;;;1.73;0.80;;;16.60;74.20;;;;;;5424833;26;19995;-60
2024/04/20 11:26:51;;;;;;;2.67;1.00;;;16.60;74.30;;;;;;5424991;26;20019;-60
2024/04/20 11:29:18;;;;;;;2.08;0.80;;;16.60;74.30;;;;;;5424779;26;20003;-61
2024/04/20 11:31:46;;;;;;;3.63;1.00;;;16.60;74.40;;;;;;5424060;26;20011;-61
2024/04/20 11:34:23;;;;;;;2.67;0.90;;;16.60;74.40;;;;;;5420109;26;20039;-60
2024/04/20 11:36:49;;;;;;;1.42;0.80;;;16.60;74.40;;;;;;5427112;26;19999;-60
2024/04/20 11:39:18;;;;;;;2.67;0.80;;;16.60;74.40;;;;;;5424038;26;20014;-60
2024/04/20 11:41:43;;;;;;;4.15;0.95;;;16.60;74.40;;;;;;5428837;26;20050;-60
2024/04/20 11:44:11;;;;;;;1.77;0.80;;;16.60;74.50;;;;;;5426533;26;20565;-61
2024/04/20 11:46:40;;;;;;;2.00;0.80;;;16.60;74.50;;;;;;5421543;26;20357;-60
2024/04/20 11:49:13;;;;;;;4.00;0.90;;;16.60;74.50;;;;;;5420640;26;20353;-61
2024/04/20 11:54:25;;;;;;;1.85;0.80;;;16.60;74.50;;;;;;5425808;26;20034;-60
2024/04/20 11:56:54;;;;;;;2.80;0.90;;;16.60;74.50;;;;;;5422941;26;19999;-61
2024/04/20 11:59:23;;;;;;;0.97;0.73;;;16.60;74.50;;;;;;5424706;26;20019;-60
2024/04/20 12:01:49;;;;;;;3.00;0.80;;;16.60;74.50;;;;;;5423791;26;20480;-60
2024/04/20 12:04:15;;;;;;;1.08;0.80;;;16.60;74.50;;;;;;5420416;26;19994;-60
2024/04/20 12:06:42;;;;;;;2.17;0.80;;;16.60;74.50;;;;;;5422866;26;20007;-61
2024/04/20 12:09:10;;;;;;;1.90;0.80;;;16.60;74.50;;;;;;5425342;26;19995;-60
2024/04/20 12:11:36;;;;;;;2.17;0.90;;;16.60;74.50;;;;;;5419628;26;20003;-61
2024/04/20 12:14:02;;;;;;;1.77;0.80;;;16.60;74.50;;;;;;5429963;26;19998;-61
2024/04/20 12:16:28;;;;;;;1.58;0.80;;;16.60;74.50;;;;;;5425640;26;20327;-60
2024/04/20 12:18:53;;;;;;;2.00;0.90;;;16.60;74.50;;;;;;5429782;26;20013;-60
2024/04/20 12:21:19;;;;;;;1.88;0.80;;;16.60;74.50;;;;;;5427258;26;19999;-60
2024/04/20 12:23:46;;;;;;;1.80;0.80;;;16.60;75.00;;;;;;5426000;26;20006;-60
2024/04/20 12:26:12;;;;;;;1.63;0.77;;;16.60;74.50;;;;;;5428461;26;20010;-60
2024/04/20 12:28:37;;;;;;;2.78;0.77;;;16.60;74.50;;;;;;5424787;26;20093;-60
2024/04/20 12:31:04;;;;;;;1.80;0.88;;;16.60;74.40;;;;;;5428279;26;20042;-61
2024/04/20 12:33:30;;;;;;;1.48;0.73;;;16.60;74.40;;;;;;5419445;26;20069;-60
2024/04/20 12:35:56;;;;;;;1.58;0.80;;;16.60;74.40;;;;;;5431621;26;20002;-60
2024/04/20 12:38:26;;;;;;;3.00;1.00;;;16.70;74.40;;;;;;5426304;26;20038;-60
2024/04/20 12:40:53;;;;;;;2.38;0.80;;;16.60;74.40;;;;;;5429831;26;20014;-60
2024/04/20 12:43:18;;;;;;;2.67;0.80;;;16.70;74.40;;;;;;5430412;26;19999;-60
2024/04/20 12:45:44;;;;;;;2.45;0.80;;;16.70;74.40;;;;;;5424551;26;20003;-60
2024/04/20 12:48:11;;;;;;;1.52;0.70;;;16.60;74.40;;;;;;5426049;26;20092;-60